Time;durP1;ratioP1;P1;durP2;ratioP2;P2;SDS_P1;SDS_P2;PMS_P1;PMS_P2;Temp;Humidity;BMP_temperature;BMP_pressure;BME280_temperature;BME280_humidity;BME280_pressure;Samples;Min_cycle;Max_cycle;Signal;HPM_P1;HPM_P2
2023/01/05 00:00:01;;;;;;;1.85;0.40;;;9.90;99.90;;;;;;5060181;28;20037;-63
2023/01/05 00:02:28;;;;;;;1.23;0.30;;;9.90;99.90;;;;;;5053195;28;20122;-63
2023/01/05 00:04:53;;;;;;;1.17;0.40;;;9.90;99.90;;;;;;5061285;28;20351;-61
2023/01/05 00:07:19;;;;;;;1.45;0.47;;;10.00;99.90;;;;;;5063642;28;20031;-62
2023/01/05 00:09:44;;;;;;;0.73;0.30;;;10.00;99.90;;;;;;5062200;28;20028;-63
2023/01/05 00:23:07;;;;;;;0.68;0.30;;;9.70;99.90;;;;;;5063535;28;20067;-63
2023/01/05 00:25:37;;;;;;;0.28;0.20;;;9.70;99.90;;;;;;5060090;28;20040;-63
2023/01/05 00:28:03;;;;;;;0.88;0.30;;;9.60;99.90;;;;;;5063324;28;20060;-62
2023/01/05 00:30:32;;;;;;;0.38;0.20;;;9.60;99.90;;;;;;5056408;28;20533;-62
2023/01/05 00:32:57;;;;;;;1.25;0.22;;;9.60;99.90;;;;;;5058670;28;20029;-62
2023/01/05 00:35:23;;;;;;;0.50;0.30;;;9.60;99.90;;;;;;5056296;28;20039;-61
2023/01/05 00:37:49;;;;;;;1.65;0.30;;;9.60;99.90;;;;;;5055163;28;20734;-62
2023/01/05 00:40:18;;;;;;;0.57;0.20;;;9.70;99.90;;;;;;5062639;28;20085;-61
2023/01/05 00:42:44;;;;;;;2.10;0.30;;;9.70;99.90;;;;;;5054360;28;20033;-62
2023/01/05 00:45:12;;;;;;;0.32;0.20;;;9.70;99.90;;;;;;5058092;28;20040;-62
2023/01/05 00:47:38;;;;;;;1.45;0.20;;;9.70;99.90;;;;;;5054071;28;20390;-61
2023/01/05 00:50:05;;;;;;;3.60;0.30;;;9.80;99.90;;;;;;5058110;28;20029;-61
2023/01/05 00:52:30;;;;;;;1.58;0.20;;;9.70;99.90;;;;;;5056636;28;20037;-62
2023/01/05 00:54:56;;;;;;;0.75;0.30;;;9.60;99.90;;;;;;5055635;28;20620;-62
2023/01/05 00:57:22;;;;;;;0.50;0.30;;;9.50;99.90;;;;;;5051924;28;20091;-63
2023/01/05 00:59:47;;;;;;;0.77;0.30;;;9.50;99.90;;;;;;5058798;28;20123;-63
2023/01/05 01:02:13;;;;;;;0.63;0.30;;;9.60;99.90;;;;;;5060113;28;20453;-63
2023/01/05 01:04:39;;;;;;;0.93;0.30;;;9.70;99.90;;;;;;5060890;28;20035;-63
2023/01/05 01:07:05;;;;;;;0.60;0.20;;;9.80;99.90;;;;;;5062677;28;20037;-62
2023/01/05 01:09:31;;;;;;;0.73;0.20;;;9.80;99.90;;;;;;5049053;28;20029;-61
2023/01/05 01:11:57;;;;;;;1.92;0.20;;;9.80;99.90;;;;;;5050954;28;20041;-63
2023/01/05 01:14:22;;;;;;;0.70;0.25;;;9.80;99.90;;;;;;5059599;28;20028;-63
2023/01/05 01:16:48;;;;;;;0.55;0.47;;;9.80;99.90;;;;;;5058783;28;20035;-63
2023/01/05 01:19:16;;;;;;;0.40;0.10;;;9.80;99.90;;;;;;5057177;28;20039;-64
2023/01/05 01:21:44;;;;;;;2.13;0.22;;;9.80;99.90;;;;;;5058300;28;20055;-63
2023/01/05 01:24:22;;;;;;;1.08;0.65;;;9.80;99.90;;;;;;5059556;28;20036;-63
2023/01/05 01:26:48;;;;;;;0.60;0.20;;;9.70;99.90;;;;;;5058979;28;20105;-61
2023/01/05 01:29:16;;;;;;;0.50;0.20;;;9.80;99.90;;;;;;5052748;28;20032;-63
2023/01/05 01:31:42;;;;;;;2.83;0.20;;;9.80;99.90;;;;;;5054038;28;20067;-63
2023/01/05 01:34:08;;;;;;;0.30;0.10;;;9.90;99.90;;;;;;5060413;28;20507;-62
2023/01/05 01:36:33;;;;;;;1.55;0.20;;;9.90;99.90;;;;;;5059341;28;20025;-63
2023/01/05 01:38:59;;;;;;;1.85;0.10;;;10.10;99.90;;;;;;5060508;28;20456;-63
2023/01/05 01:41:27;;;;;;;0.80;0.20;;;10.10;99.90;;;;;;5055822;28;20052;-63
2023/01/05 01:43:54;;;;;;;2.22;0.10;;;10.20;99.90;;;;;;5068087;28;20093;-62
2023/01/05 01:46:21;;;;;;;0.20;0.10;;;10.20;99.90;;;;;;5059450;28;20071;-62
2023/01/05 01:48:53;;;;;;;0.70;0.20;;;10.20;99.90;;;;;;5059359;28;20029;-61
2023/01/05 01:51:27;;;;;;;0.20;0.10;;;10.10;99.90;;;;;;5054458;28;20075;-64
2023/01/05 01:53:57;;;;;;;1.35;0.20;;;10.10;99.90;;;;;;5060947;28;20586;-61
2023/01/05 01:56:28;;;;;;;0.50;0.20;;;10.10;99.90;;;;;;5059900;28;20037;-62
2023/01/05 01:58:54;;;;;;;1.25;0.30;;;10.10;99.90;;;;;;5055222;28;20040;-63
2023/01/05 02:01:20;;;;;;;1.30;0.20;;;10.10;99.90;;;;;;5058160;28;20035;-63
2023/01/05 02:03:46;;;;;;;0.60;0.20;;;10.10;99.90;;;;;;5062639;28;20064;-63
2023/01/05 02:06:12;;;;;;;1.65;0.22;;;10.00;99.90;;;;;;5050039;28;20560;-62
2023/01/05 02:08:37;;;;;;;2.47;0.22;;;10.10;99.90;;;;;;5055554;28;20035;-62
2023/01/05 02:11:12;;;;;;;0.32;0.10;;;10.20;99.90;;;;;;5066041;28;20033;-62
2023/01/05 02:14:01;;;;;;;0.60;0.20;;;10.10;99.90;;;;;;5055442;28;20060;-61
2023/01/05 02:16:47;;;;;;;1.85;0.20;;;10.20;99.90;;;;;;5056235;28;20033;-62
2023/01/05 02:19:22;;;;;;;0.47;0.20;;;10.20;99.90;;;;;;5049358;28;20453;-63
2023/01/05 02:22:05;;;;;;;1.13;0.15;;;10.20;99.90;;;;;;5059705;28;20032;-62
2023/01/05 02:24:55;;;;;;;1.45;0.22;;;10.10;99.90;;;;;;5065480;28;20047;-62
2023/01/05 02:27:48;;;;;;;0.40;0.00;;;10.20;99.90;;;;;;5061279;28;20052;-64
2023/01/05 02:30:14;;;;;;;0.20;0.10;;;10.20;99.90;;;;;;5053415;28;20033;-62
2023/01/05 02:33:05;;;;;;;0.65;0.10;;;10.10;99.90;;;;;;5049400;28;20896;-62
2023/01/05 02:35:53;;;;;;;1.33;0.10;;;10.20;99.90;;;;;;5057241;28;20028;-62
2023/01/05 02:38:48;;;;;;;0.40;0.10;;;10.10;99.90;;;;;;5056441;28;20496;-64
2023/01/05 02:41:37;;;;;;;0.45;0.10;;;10.10;99.90;;;;;;5054923;28;20536;-63
2023/01/05 02:44:06;;;;;;;0.20;0.10;;;10.00;99.90;;;;;;5059911;28;20035;-63
2023/01/05 02:46:32;;;;;;;0.45;0.15;;;10.00;99.90;;;;;;5049351;28;20103;-64
2023/01/05 02:48:59;;;;;;;7.32;0.20;;;9.90;99.90;;;;;;5064678;28;20469;-63
2023/01/05 02:51:48;;;;;;;0.10;0.10;;;10.00;99.90;;;;;;5063319;28;20034;-62
2023/01/05 02:54:36;;;;;;;1.85;0.10;;;10.00;99.90;;;;;;5067905;28;20040;-62
2023/01/05 02:57:14;;;;;;;0.47;0.22;;;10.00;99.90;;;;;;5056595;28;20037;-61
2023/01/05 02:59:50;;;;;;;1.00;0.20;;;10.00;99.90;;;;;;5074314;28;20056;-62
2023/01/05 03:02:22;;;;;;;0.30;0.10;;;9.90;99.90;;;;;;5059376;28;20524;-62
2023/01/05 03:04:54;;;;;;;0.30;0.10;;;9.90;99.90;;;;;;5055918;28;20433;-62
2023/01/05 03:07:28;;;;;;;0.10;0.00;;;9.90;99.90;;;;;;5052092;28;20047;-63
2023/01/05 03:09:54;;;;;;;0.45;0.10;;;9.90;99.90;;;;;;5051398;28;20041;-61
2023/01/05 03:15:28;;;;;;;0.55;0.20;;;9.80;99.90;;;;;;5063980;28;20587;-63
2023/01/05 03:17:57;;;;;;;1.15;0.10;;;9.70;99.90;;;;;;5066866;28;20031;-63
2023/01/05 03:20:25;;;;;;;0.77;0.20;;;9.60;99.90;;;;;;5066013;28;20033;-63
2023/01/05 03:37:13;;;;;;;0.35;0.10;;;9.50;99.90;;;;;;5047078;28;20112;-63
2023/01/05 03:39:41;;;;;;;0.30;0.10;;;9.60;99.90;;;;;;5051621;28;20135;-63
2023/01/05 03:42:09;;;;;;;0.43;0.10;;;9.60;99.90;;;;;;5054533;28;20571;-62
2023/01/05 03:44:37;;;;;;;0.40;0.20;;;9.70;99.90;;;;;;5072581;28;20076;-62
2023/01/05 03:47:03;;;;;;;0.20;0.10;;;9.60;99.90;;;;;;5060386;28;20021;-62
2023/01/05 03:49:29;;;;;;;0.73;0.10;;;9.70;99.90;;;;;;5063241;28;20031;-63
2023/01/05 03:51:54;;;;;;;1.73;0.20;;;9.70;99.90;;;;;;5069399;28;20043;-63
2023/01/05 03:54:20;;;;;;;0.73;0.20;;;9.70;99.90;;;;;;5069162;28;20028;-62
2023/01/05 03:56:46;;;;;;;1.15;0.30;;;9.60;99.90;;;;;;5062748;28;20119;-63
2023/01/05 03:59:11;;;;;;;0.45;0.08;;;9.70;99.90;;;;;;5070515;28;20036;-64
2023/01/05 04:01:37;;;;;;;0.20;0.10;;;9.70;99.90;;;;;;5059392;28;20129;-63
2023/01/05 04:04:03;;;;;;;0.60;0.13;;;9.70;99.90;;;;;;5067741;28;20036;-62
2023/01/05 04:06:28;;;;;;;0.20;0.17;;;9.70;99.90;;;;;;5050754;28;20087;-62
2023/01/05 04:08:54;;;;;;;0.52;0.10;;;9.70;99.90;;;;;;5064714;28;20036;-62
2023/01/05 04:11:22;;;;;;;0.75;0.10;;;9.70;99.90;;;;;;5060085;28;20028;-63
2023/01/05 04:13:47;;;;;;;0.22;0.10;;;9.80;99.90;;;;;;5071120;28;20054;-62
2023/01/05 04:16:13;;;;;;;0.45;0.20;;;9.80;99.90;;;;;;5064927;28;20028;-63
2023/01/05 04:18:39;;;;;;;0.30;0.10;;;9.80;99.90;;;;;;5056994;28;20031;-63
2023/01/05 04:21:06;;;;;;;0.40;0.10;;;9.80;99.90;;;;;;5061893;28;20083;-64
2023/01/05 04:23:32;;;;;;;2.05;0.05;;;9.80;99.90;;;;;;5054313;28;20473;-63
2023/01/05 04:25:57;;;;;;;0.95;0.10;;;9.80;99.90;;;;;;5068438;28;20034;-62
2023/01/05 04:28:24;;;;;;;1.13;0.10;;;9.80;99.90;;;;;;5061305;28;20025;-63
2023/01/05 04:30:51;;;;;;;1.88;0.10;;;9.70;99.90;;;;;;5058933;28;20495;-63
2023/01/05 04:33:18;;;;;;;0.13;0.10;;;9.70;99.90;;;;;;5059803;28;20040;-62
2023/01/05 04:35:44;;;;;;;1.10;0.10;;;9.60;99.90;;;;;;5054762;28;20140;-63
2023/01/05 04:38:10;;;;;;;0.70;0.20;;;9.60;99.90;;;;;;5049626;28;20135;-63
2023/01/05 04:40:36;;;;;;;1.88;0.10;;;9.60;99.90;;;;;;5054862;28;20108;-62
2023/01/05 04:43:02;;;;;;;8.65;0.17;;;9.60;99.90;;;;;;5058984;28;20128;-63
2023/01/05 04:45:27;;;;;;;0.40;0.20;;;9.50;99.90;;;;;;5064285;28;20035;-64
2023/01/05 04:47:53;;;;;;;0.95;0.20;;;9.50;99.90;;;;;;5057821;28;20032;-63
2023/01/05 04:50:19;;;;;;;0.38;0.10;;;9.50;99.90;;;;;;5063714;28;20057;-63
2023/01/05 04:52:45;;;;;;;0.60;0.30;;;9.50;99.90;;;;;;5060577;28;20151;-63
2023/01/05 04:55:10;;;;;;;0.40;0.20;;;9.50;99.90;;;;;;5061593;28;20044;-62
2023/01/05 04:57:36;;;;;;;0.55;0.10;;;9.60;99.90;;;;;;5065684;28;20028;-64
2023/01/05 05:00:02;;;;;;;0.63;0.10;;;9.60;99.90;;;;;;5060158;28;20044;-62
2023/01/05 05:02:28;;;;;;;0.60;0.30;;;9.60;99.90;;;;;;5066662;28;20021;-62
2023/01/05 05:04:54;;;;;;;0.60;0.20;;;9.50;99.90;;;;;;5058363;28;20381;-63
2023/01/05 05:07:19;;;;;;;0.52;0.13;;;9.50;99.90;;;;;;5063043;28;20532;-63
2023/01/05 05:09:45;;;;;;;1.15;0.38;;;9.40;99.90;;;;;;5066695;28;20667;-63
2023/01/05 05:12:12;;;;;;;1.23;0.40;;;9.40;99.90;;;;;;5062036;28;20024;-63
2023/01/05 05:14:38;;;;;;;0.80;0.30;;;9.40;99.90;;;;;;5069657;28;20042;-64
2023/01/05 05:17:03;;;;;;;1.23;0.30;;;9.40;99.90;;;;;;5066304;28;20028;-63
2023/01/05 05:19:29;;;;;;;0.65;0.20;;;9.40;99.90;;;;;;5068291;28;20036;-62
2023/01/05 05:21:55;;;;;;;0.88;0.30;;;9.40;99.90;;;;;;5067402;28;20024;-64
2023/01/05 05:24:20;;;;;;;0.38;0.20;;;9.40;99.90;;;;;;5068691;28;20037;-63
2023/01/05 05:26:46;;;;;;;0.98;0.20;;;9.40;99.90;;;;;;5063634;28;20058;-63
2023/01/05 05:29:12;;;;;;;0.60;0.30;;;9.40;99.90;;;;;;5063769;28;20482;-63
2023/01/05 05:31:37;;;;;;;1.77;0.47;;;9.50;99.90;;;;;;5062862;28;20020;-63
2023/01/05 05:34:03;;;;;;;0.80;0.30;;;9.40;99.90;;;;;;5069948;28;20035;-62
2023/01/05 05:36:29;;;;;;;0.50;0.20;;;9.40;99.90;;;;;;5055783;28;20525;-63
2023/01/05 05:38:55;;;;;;;1.10;0.40;;;9.40;99.90;;;;;;5065929;28;21047;-64
2023/01/05 05:41:21;;;;;;;2.78;0.20;;;9.30;99.90;;;;;;5070186;28;20036;-63
2023/01/05 05:43:46;;;;;;;0.50;0.25;;;9.40;99.90;;;;;;5068072;28;20111;-63
2023/01/05 05:46:12;;;;;;;0.47;0.22;;;9.40;99.90;;;;;;5070972;28;20036;-62
2023/01/05 05:48:37;;;;;;;0.75;0.32;;;9.40;99.90;;;;;;5065477;28;20089;-65
2023/01/05 05:51:03;;;;;;;3.20;0.32;;;9.40;99.90;;;;;;5062576;28;20078;-63
2023/01/05 05:53:29;;;;;;;0.68;0.28;;;9.40;99.90;;;;;;5060849;28;20044;-63
2023/01/05 05:55:54;;;;;;;1.75;0.40;;;9.40;99.90;;;;;;5067777;28;20028;-62
2023/01/05 05:58:20;;;;;;;0.52;0.30;;;9.40;99.90;;;;;;5068289;28;20047;-63
2023/01/05 06:00:46;;;;;;;1.10;0.30;;;9.40;99.90;;;;;;5065577;28;20032;-63
2023/01/05 06:03:12;;;;;;;1.10;0.47;;;9.40;99.90;;;;;;5069270;28;20054;-64
2023/01/05 06:05:37;;;;;;;0.60;0.30;;;9.40;99.90;;;;;;5059468;28;20097;-63
2023/01/05 06:08:03;;;;;;;0.43;0.13;;;9.40;99.90;;;;;;5068910;28;20108;-63
2023/01/05 06:10:29;;;;;;;0.32;0.20;;;9.50;99.90;;;;;;5067849;28;20038;-64
2023/01/05 06:12:55;;;;;;;1.02;0.22;;;9.50;99.90;;;;;;5067443;28;20035;-63
2023/01/05 06:15:22;;;;;;;0.93;0.30;;;9.50;99.90;;;;;;5067109;28;20078;-65
2023/01/05 06:17:48;;;;;;;1.15;0.30;;;9.50;99.90;;;;;;5058615;28;20509;-65
2023/01/05 06:20:15;;;;;;;0.32;0.17;;;9.50;99.90;;;;;;5063201;28;20024;-63
2023/01/05 06:22:42;;;;;;;1.05;0.50;;;9.60;99.90;;;;;;5052212;28;20041;-63
2023/01/05 06:25:08;;;;;;;0.80;0.32;;;9.60;99.90;;;;;;5065895;28;20032;-63
2023/01/05 06:27:34;;;;;;;1.20;0.22;;;9.60;99.90;;;;;;5056671;28;20500;-62
2023/01/05 06:30:00;;;;;;;0.82;0.30;;;9.70;99.90;;;;;;5070257;28;20032;-63
2023/01/05 06:32:26;;;;;;;0.85;0.30;;;9.70;99.90;;;;;;5066305;28;20435;-64
2023/01/05 06:34:51;;;;;;;1.45;0.30;;;9.60;99.90;;;;;;5056537;28;20137;-64
2023/01/05 06:37:17;;;;;;;0.52;0.20;;;9.70;99.90;;;;;;5063703;28;20358;-64
2023/01/05 06:39:43;;;;;;;0.40;0.20;;;9.70;99.90;;;;;;5063308;28;20021;-63
2023/01/05 06:42:09;;;;;;;0.82;0.40;;;9.60;99.90;;;;;;5072748;28;20086;-62
2023/01/05 06:44:34;;;;;;;2.33;0.50;;;9.70;99.90;;;;;;5062126;28;20051;-64
2023/01/05 06:47:00;;;;;;;1.35;0.70;;;9.60;99.90;;;;;;5064803;28;20039;-63
2023/01/05 06:49:26;;;;;;;2.65;1.15;;;9.60;99.90;;;;;;5065278;28;20032;-63
2023/01/05 06:51:52;;;;;;;5.15;1.10;;;9.60;99.90;;;;;;5058576;28;20036;-64
2023/01/05 06:54:17;;;;;;;2.33;0.63;;;9.50;99.90;;;;;;5072519;28;20505;-64
2023/01/05 06:56:43;;;;;;;3.97;0.80;;;9.50;99.90;;;;;;5054059;28;20059;-63
2023/01/05 06:59:11;;;;;;;2.10;0.57;;;9.40;99.90;;;;;;5067854;28;20032;-63
2023/01/05 07:01:37;;;;;;;1.48;0.70;;;9.40;99.90;;;;;;5049766;28;20032;-64
2023/01/05 07:04:03;;;;;;;2.20;0.90;;;9.40;99.90;;;;;;5058167;28;20024;-64
2023/01/05 07:06:28;;;;;;;2.83;0.82;;;9.30;99.90;;;;;;5064625;28;20176;-62
2023/01/05 07:08:54;;;;;;;4.32;1.10;;;9.30;99.90;;;;;;5068073;28;20052;-62
2023/01/05 07:11:20;;;;;;;2.83;0.90;;;9.30;99.90;;;;;;5058473;28;20059;-63
2023/01/05 07:13:49;;;;;;;3.50;0.90;;;9.30;99.90;;;;;;5059812;28;20032;-63
2023/01/05 07:16:17;;;;;;;4.53;1.10;;;9.30;99.90;;;;;;5048649;28;20033;-63
2023/01/05 07:18:43;;;;;;;5.30;1.35;;;9.30;99.90;;;;;;5066412;28;20033;-64
2023/01/05 07:21:09;;;;;;;2.75;1.00;;;9.30;99.90;;;;;;5063034;28;20028;-62
2023/01/05 07:23:36;;;;;;;5.53;1.23;;;9.20;99.90;;;;;;5063398;28;20655;-64
2023/01/05 07:26:03;;;;;;;9.35;1.50;;;9.20;99.90;;;;;;5053181;28;20462;-64
2023/01/05 07:28:29;;;;;;;6.90;1.60;;;9.20;99.90;;;;;;5074298;28;20028;-63
2023/01/05 07:30:54;;;;;;;5.85;1.58;;;9.10;99.90;;;;;;5065573;28;20122;-64
2023/01/05 07:33:20;;;;;;;7.72;1.25;;;9.10;99.90;;;;;;5059169;28;20032;-64
2023/01/05 07:35:46;;;;;;;8.65;1.30;;;9.10;99.90;;;;;;5063423;28;20060;-63
2023/01/05 07:38:12;;;;;;;5.13;1.33;;;9.00;99.90;;;;;;5069522;28;20032;-64
2023/01/05 07:40:37;;;;;;;12.73;1.67;;;9.00;99.90;;;;;;5064640;28;20107;-63
2023/01/05 07:43:04;;;;;;;9.18;1.42;;;9.00;99.90;;;;;;5074718;28;20111;-64
2023/01/05 07:45:29;;;;;;;13.70;2.75;;;9.00;99.90;;;;;;5074846;28;20111;-63
2023/01/05 07:47:55;;;;;;;7.30;1.83;;;9.00;99.90;;;;;;5073216;28;20540;-63
2023/01/05 07:50:21;;;;;;;8.30;1.50;;;9.00;99.90;;;;;;5070102;28;20404;-63
2023/01/05 07:52:47;;;;;;;8.50;1.60;;;9.00;99.90;;;;;;5070865;28;20040;-64
2023/01/05 07:55:12;;;;;;;2.60;1.30;;;9.00;99.90;;;;;;5063490;28;20029;-63
2023/01/05 07:57:38;;;;;;;7.45;1.77;;;9.00;99.90;;;;;;5064144;28;20079;-64
2023/01/05 08:00:05;;;;;;;6.05;1.83;;;9.00;99.90;;;;;;5065038;28;20036;-64
2023/01/05 08:02:31;;;;;;;4.78;1.73;;;9.00;99.90;;;;;;5069742;28;20025;-64
2023/01/05 08:04:57;;;;;;;5.10;1.60;;;9.00;99.90;;;;;;5067602;28;20159;-64
2023/01/05 08:07:23;;;;;;;5.10;1.80;;;9.00;99.90;;;;;;5071202;28;20115;-63
2023/01/05 08:13:58;;;;;;;13.48;2.95;;;9.00;99.90;;;;;;5066545;28;20589;-63
2023/01/05 08:15:18;;;;;;;14.63;3.17;;;9.00;99.90;;;;;;5061020;28;20448;-64
2023/01/05 08:17:44;;;;;;;6.43;2.50;;;9.10;99.90;;;;;;5065758;28;20022;-63
2023/01/05 08:20:10;;;;;;;11.02;3.58;;;9.10;99.90;;;;;;5058473;28;20040;-64
2023/01/05 08:22:35;;;;;;;7.03;2.78;;;9.10;99.90;;;;;;5070352;28;20036;-66
2023/01/05 08:25:01;;;;;;;11.00;2.72;;;9.10;99.90;;;;;;5059566;28;20873;-62
2023/01/05 08:27:27;;;;;;;10.60;2.72;;;9.10;99.90;;;;;;5066720;28;20049;-62
2023/01/05 08:29:53;;;;;;;10.40;2.60;;;9.10;99.90;;;;;;5068256;28;20111;-64
2023/01/05 08:32:18;;;;;;;11.70;2.80;;;9.20;99.90;;;;;;5068608;28;20028;-64
2023/01/05 08:34:47;;;;;;;7.78;2.60;;;9.20;99.90;;;;;;5068854;28;20081;-63
2023/01/05 08:37:12;;;;;;;17.48;2.58;;;9.20;99.90;;;;;;5057324;28;20040;-62
2023/01/05 08:39:38;;;;;;;10.60;2.97;;;9.20;99.90;;;;;;5060591;28;20036;-64
2023/01/05 08:42:03;;;;;;;12.55;2.80;;;9.30;99.90;;;;;;5058945;28;20033;-64
2023/01/05 08:44:29;;;;;;;11.90;2.45;;;9.30;99.90;;;;;;5067556;28;20663;-64
2023/01/05 08:46:55;;;;;;;9.23;2.15;;;9.30;99.90;;;;;;5068819;28;20857;-63
2023/01/05 08:49:21;;;;;;;9.32;2.40;;;9.30;99.90;;;;;;5068423;28;20033;-64
2023/01/05 08:51:46;;;;;;;8.40;2.00;;;9.30;99.90;;;;;;5068314;28;20059;-63
2023/01/05 08:54:12;;;;;;;12.48;2.30;;;9.30;99.90;;;;;;5070810;28;20041;-64
2023/01/05 08:56:38;;;;;;;7.95;1.70;;;9.30;99.90;;;;;;5069063;28;20036;-64
2023/01/05 08:59:03;;;;;;;11.73;1.95;;;9.30;99.90;;;;;;5071864;28;20047;-64
2023/01/05 09:01:30;;;;;;;6.03;2.38;;;9.30;99.90;;;;;;5068235;28;20086;-64
2023/01/05 09:03:55;;;;;;;7.63;1.90;;;9.30;99.90;;;;;;5068826;28;20040;-64
2023/01/05 09:06:21;;;;;;;10.65;2.00;;;9.30;99.90;;;;;;5070826;28;20029;-62
2023/01/05 09:08:47;;;;;;;13.30;2.33;;;9.30;99.90;;;;;;5068458;28;20033;-64
2023/01/05 09:11:14;;;;;;;11.07;2.25;;;9.30;99.90;;;;;;5076838;28;20028;-64
2023/01/05 09:13:46;;;;;;;6.65;1.70;;;9.30;99.90;;;;;;5068488;28;20785;-63
2023/01/05 09:16:17;;;;;;;10.25;2.10;;;9.40;99.90;;;;;;5067679;28;20066;-64
2023/01/05 09:18:44;;;;;;;7.32;1.92;;;9.30;99.90;;;;;;5066972;28;20039;-63
2023/01/05 09:21:10;;;;;;;8.93;2.03;;;9.30;99.90;;;;;;5068648;28;20048;-64
2023/01/05 09:23:36;;;;;;;10.45;1.60;;;9.30;99.90;;;;;;5069590;28;20485;-62
2023/01/05 09:26:07;;;;;;;7.07;1.70;;;9.30;99.90;;;;;;5066532;28;20032;-64
2023/01/05 09:28:35;;;;;;;14.65;2.22;;;9.30;99.90;;;;;;5068691;28;20059;-64
2023/01/05 09:31:13;;;;;;;10.70;1.90;;;9.30;99.90;;;;;;5052514;28;20657;-62
2023/01/05 09:33:39;;;;;;;8.50;1.60;;;9.40;99.90;;;;;;5055489;28;20040;-64
2023/01/05 09:36:07;;;;;;;12.13;1.80;;;9.40;99.90;;;;;;5067725;28;20044;-64
2023/01/05 09:38:33;;;;;;;13.77;1.80;;;9.40;99.90;;;;;;5059879;28;20024;-64
2023/01/05 09:41:10;;;;;;;10.15;2.30;;;9.40;99.90;;;;;;5069728;28;20608;-63
2023/01/05 09:43:38;;;;;;;11.45;1.60;;;9.40;99.90;;;;;;5068633;28;20032;-63
2023/01/05 09:46:08;;;;;;;12.10;1.98;;;9.40;99.90;;;;;;5061168;28;20173;-66
2023/01/05 09:48:39;;;;;;;9.50;1.92;;;9.40;99.90;;;;;;5059669;28;20025;-64
2023/01/05 09:51:07;;;;;;;12.70;2.22;;;9.40;99.90;;;;;;5062533;28;20572;-64
2023/01/05 09:53:33;;;;;;;8.00;1.92;;;9.40;99.90;;;;;;5056737;28;20731;-63
2023/01/05 09:56:00;;;;;;;8.13;1.80;;;9.40;99.90;;;;;;5063077;28;20033;-63
2023/01/05 09:58:32;;;;;;;8.13;1.65;;;9.40;99.90;;;;;;5060833;28;20688;-64
2023/01/05 10:01:06;;;;;;;8.80;1.92;;;9.40;99.90;;;;;;5051460;28;20485;-65
2023/01/05 10:03:38;;;;;;;12.00;2.00;;;9.50;99.90;;;;;;5050051;28;20052;-65
2023/01/05 10:06:09;;;;;;;10.02;1.77;;;9.40;99.90;;;;;;5062357;28;20039;-65
2023/01/05 10:08:39;;;;;;;11.05;1.75;;;9.50;99.90;;;;;;5053241;28;20028;-65
2023/01/05 10:14:03;;;;;;;11.07;1.92;;;9.40;99.90;;;;;;5067073;28;20290;-63
2023/01/05 10:16:30;;;;;;;14.10;2.75;;;9.40;99.90;;;;;;5062565;28;20049;-63
2023/01/05 10:18:57;;;;;;;11.68;2.30;;;9.40;99.90;;;;;;5064402;28;20082;-63
2023/01/05 10:21:57;;;;;;;11.00;2.20;;;9.40;99.90;;;;;;5064337;28;20074;-65
2023/01/05 10:24:39;;;;;;;13.07;1.95;;;9.40;99.90;;;;;;5048863;28;20044;-65
2023/01/05 10:27:05;;;;;;;8.70;2.00;;;9.50;99.90;;;;;;5058115;28;20039;-65
2023/01/05 10:29:33;;;;;;;8.48;2.40;;;9.50;99.90;;;;;;5055725;28;20037;-65
2023/01/05 10:32:27;;;;;;;20.50;2.50;;;9.50;99.90;;;;;;5065505;28;20771;-65
2023/01/05 10:34:58;;;;;;;11.55;1.95;;;9.40;99.90;;;;;;5047231;28;20049;-64
2023/01/05 10:37:40;;;;;;;14.77;2.20;;;9.50;99.90;;;;;;5058495;28;20075;-64
2023/01/05 10:40:21;;;;;;;17.85;2.20;;;9.50;99.90;;;;;;5058305;28;20028;-64
2023/01/05 10:43:16;;;;;;;14.07;2.30;;;9.50;99.90;;;;;;5058892;28;20053;-65
2023/01/05 10:45:42;;;;;;;16.38;1.95;;;9.50;99.90;;;;;;5056362;28;20524;-64
2023/01/05 10:48:18;;;;;;;8.57;1.65;;;9.60;99.90;;;;;;5059570;28;20056;-64
2023/01/05 10:50:46;;;;;;;10.43;1.52;;;9.60;99.90;;;;;;5067675;28;20099;-64
2023/01/05 10:53:18;;;;;;;17.38;2.13;;;9.50;99.90;;;;;;5062696;28;20098;-64
2023/01/05 10:55:48;;;;;;;11.80;1.52;;;9.60;99.90;;;;;;5063314;28;20035;-67
2023/01/05 10:58:21;;;;;;;11.07;1.53;;;9.60;99.90;;;;;;5063354;28;20120;-67
2023/01/05 11:00:48;;;;;;;12.43;2.08;;;9.60;99.90;;;;;;5064046;28;20466;-66
2023/01/05 11:03:16;;;;;;;12.95;1.98;;;9.60;99.90;;;;;;5080182;28;20040;-64
2023/01/05 11:05:45;;;;;;;11.15;1.73;;;9.60;99.90;;;;;;5065521;28;20107;-65
2023/01/05 11:08:20;;;;;;;12.48;2.03;;;9.60;99.90;;;;;;5057429;28;20033;-64
2023/01/05 11:10:54;;;;;;;16.40;2.15;;;9.60;99.90;;;;;;5060169;28;20161;-62
2023/01/05 11:13:28;;;;;;;12.85;2.03;;;9.50;99.90;;;;;;5062401;28;20116;-64
2023/01/05 11:16:20;;;;;;;14.40;2.53;;;9.50;99.90;;;;;;5069792;28;20033;-64
2023/01/05 11:18:57;;;;;;;11.82;1.40;;;9.50;99.90;;;;;;5067272;28;20056;-63
2023/01/05 11:21:25;;;;;;;21.15;1.85;;;9.50;99.90;;;;;;5064436;28;20120;-65
2023/01/05 11:23:53;;;;;;;16.75;1.95;;;9.50;99.90;;;;;;5068763;28;20056;-65
2023/01/05 11:26:24;;;;;;;11.10;1.90;;;9.50;99.90;;;;;;5067086;28;20128;-64
2023/01/05 11:29:06;;;;;;;16.83;2.33;;;9.60;99.90;;;;;;5067374;28;20900;-64
2023/01/05 11:31:53;;;;;;;7.50;2.00;;;9.60;99.90;;;;;;5072572;28;20087;-64
2023/01/05 11:34:37;;;;;;;18.63;1.83;;;9.60;99.90;;;;;;5058602;28;20033;-67
2023/01/05 11:37:15;;;;;;;6.68;1.88;;;9.70;99.90;;;;;;5063441;28;20025;-67
2023/01/05 11:39:46;;;;;;;12.75;2.25;;;9.70;99.90;;;;;;5059674;28;20059;-67
2023/01/05 11:42:26;;;;;;;11.18;2.20;;;9.70;99.90;;;;;;5065643;28;21753;-67
2023/01/05 11:45:06;;;;;;;16.20;2.13;;;9.80;99.90;;;;;;5057134;28;20066;-68
2023/01/05 11:47:44;;;;;;;12.50;1.67;;;9.80;99.90;;;;;;5060496;28;20041;-67
2023/01/05 11:50:13;;;;;;;14.32;1.70;;;9.90;99.90;;;;;;5060752;28;20129;-67
2023/01/05 11:52:49;;;;;;;14.32;1.80;;;9.90;99.90;;;;;;5060676;28;20437;-69
2023/01/05 11:55:29;;;;;;;15.57;2.25;;;9.90;99.90;;;;;;5069064;28;20038;-68
2023/01/05 11:58:16;;;;;;;10.25;1.70;;;10.00;99.90;;;;;;5060001;28;20056;-68
2023/01/05 12:00:51;;;;;;;18.55;3.00;;;9.90;99.90;;;;;;5060148;28;20025;-67
2023/01/05 12:03:34;;;;;;;12.75;1.83;;;9.90;99.90;;;;;;5056534;28;20041;-64
2023/01/05 12:06:11;;;;;;;23.52;2.55;;;9.90;99.90;;;;;;5063494;28;20032;-67
2023/01/05 12:08:59;;;;;;;15.43;2.15;;;9.90;99.90;;;;;;5070747;28;20077;-67
2023/01/05 12:11:28;;;;;;;13.90;2.00;;;9.90;99.90;;;;;;5064779;28;20104;-67
2023/01/05 12:14:07;;;;;;;13.82;2.42;;;9.90;99.90;;;;;;5063925;28;20040;-66
2023/01/05 12:16:45;;;;;;;20.65;2.20;;;9.90;99.90;;;;;;5061447;28;20352;-66
2023/01/05 12:19:55;;;;;;;25.92;2.35;;;10.00;99.90;;;;;;5069946;28;20466;-65
2023/01/05 12:22:53;;;;;;;15.73;1.95;;;10.00;99.90;;;;;;5057411;28;20501;-66
2023/01/05 12:25:48;;;;;;;11.95;1.98;;;10.00;99.90;;;;;;5066264;28;20103;-66
2023/01/05 12:28:20;;;;;;;20.90;1.95;;;9.90;99.90;;;;;;5064656;28;20037;-65
2023/01/05 12:31:05;;;;;;;12.07;1.77;;;9.90;99.90;;;;;;5058106;28;20052;-66
2023/01/05 12:34:01;;;;;;;10.63;1.75;;;9.90;99.90;;;;;;5062388;28;20082;-65
2023/01/05 12:36:27;;;;;;;17.88;2.10;;;9.90;99.90;;;;;;5068670;28;20082;-65
2023/01/05 12:39:04;;;;;;;19.10;1.85;;;9.90;99.90;;;;;;5067192;28;20431;-67
2023/01/05 12:41:46;;;;;;;11.80;2.28;;;9.90;99.90;;;;;;5056575;28;20150;-65
2023/01/05 12:44:24;;;;;;;17.52;2.17;;;9.90;99.90;;;;;;5056283;28;20029;-67
2023/01/05 12:46:56;;;;;;;19.15;2.38;;;9.90;99.90;;;;;;5054968;28;20037;-68
2023/01/05 12:49:51;;;;;;;21.50;2.63;;;9.90;99.90;;;;;;5059942;28;20679;-67
2023/01/05 12:52:44;;;;;;;10.75;2.22;;;9.90;99.90;;;;;;5055278;28;20483;-65
2023/01/05 12:55:35;;;;;;;14.55;2.40;;;9.90;99.90;;;;;;5053425;28;20040;-66
2023/01/05 12:58:08;;;;;;;18.17;2.05;;;9.80;99.90;;;;;;5060527;28;20470;-67
2023/01/05 13:00:41;;;;;;;24.60;2.50;;;9.80;99.90;;;;;;5057730;28;20021;-66
2023/01/05 13:03:20;;;;;;;18.20;2.38;;;9.80;99.90;;;;;;5056885;28;20047;-67
2023/01/05 13:06:14;;;;;;;18.55;1.85;;;9.70;99.90;;;;;;5061254;28;20028;-67
2023/01/05 13:09:02;;;;;;;10.80;1.85;;;9.70;99.90;;;;;;5052010;28;20035;-66
2023/01/05 13:11:52;;;;;;;19.73;1.98;;;9.70;99.90;;;;;;5064853;28;20043;-65
2023/01/05 13:14:29;;;;;;;17.17;2.30;;;9.80;99.90;;;;;;5050800;28;20489;-68
2023/01/05 13:17:02;;;;;;;13.70;2.30;;;9.70;99.90;;;;;;5067402;28;20040;-65
2023/01/05 13:19:37;;;;;;;15.68;2.38;;;9.70;99.90;;;;;;5069022;28;20465;-67
2023/01/05 13:22:09;;;;;;;17.02;2.20;;;9.60;99.90;;;;;;5065960;28;20083;-65
2023/01/05 13:25:04;;;;;;;13.05;2.30;;;9.60;99.90;;;;;;5065946;28;20037;-66
2023/01/05 13:27:31;;;;;;;10.77;1.83;;;9.60;99.90;;;;;;5056937;28;20052;-66
2023/01/05 13:29:59;;;;;;;16.80;2.25;;;9.60;99.90;;;;;;5064933;28;20040;-67
2023/01/05 13:32:56;;;;;;;16.80;2.75;;;9.60;99.90;;;;;;5054434;28;20032;-67
2023/01/05 13:35:36;;;;;;;19.40;2.40;;;9.60;99.90;;;;;;5063392;28;20060;-64
2023/01/05 13:38:24;;;;;;;25.88;2.80;;;9.60;99.90;;;;;;5057491;28;20040;-66
2023/01/05 13:41:22;;;;;;;25.58;2.38;;;9.50;99.90;;;;;;5064367;28;20111;-64
2023/01/05 13:44:00;;;;;;;21.63;3.35;;;9.50;99.90;;;;;;5057325;28;20040;-64